sensor_id;sensor_type;location;lat;lon;timestamp;P1;durP1;ratioP1;P2;durP2;ratioP2
7205;SDS011;3644;53.480;10.004;2024-01-30T00:01:10;10.57;;;6.97;;
7205;SDS011;3644;53.480;10.004;2024-01-30T00:03:36;9.40;;;6.43;;
7205;SDS011;3644;53.480;10.004;2024-01-30T00:06:02;8.10;;;6.50;;
7205;SDS011;3644;53.480;10.004;2024-01-30T00:08:28;8.30;;;6.80;;
7205;SDS011;3644;53.480;10.004;2024-01-30T00:10:54;6.83;;;6.10;;
7205;SDS011;3644;53.480;10.004;2024-01-30T00:13:19;7.27;;;6.27;;
7205;SDS011;3644;53.480;10.004;2024-01-30T00:15:45;11.00;;;6.90;;
7205;SDS011;3644;53.480;10.004;2024-01-30T00:18:10;11.30;;;7.10;;
7205;SDS011;3644;53.480;10.004;2024-01-30T00:20:36;9.53;;;6.67;;
7205;SDS011;3644;53.480;10.004;2024-01-30T00:23:02;8.00;;;5.47;;
7205;SDS011;3644;53.480;10.004;2024-01-30T00:25:27;9.57;;;6.70;;
7205;SDS011;3644;53.480;10.004;2024-01-30T00:27:53;9.73;;;6.70;;
7205;SDS011;3644;53.480;10.004;2024-01-30T00:30:19;8.33;;;6.73;;
7205;SDS011;3644;53.480;10.004;2024-01-30T00:32:45;10.00;;;6.80;;
7205;SDS011;3644;53.480;10.004;2024-01-30T00:35:11;9.80;;;6.13;;
7205;SDS011;3644;53.480;10.004;2024-01-30T00:37:36;8.47;;;7.20;;
7205;SDS011;3644;53.480;10.004;2024-01-30T00:40:02;8.63;;;6.83;;
7205;SDS011;3644;53.480;10.004;2024-01-30T00:42:28;10.13;;;7.23;;
7205;SDS011;3644;53.480;10.004;2024-01-30T00:44:54;10.07;;;6.80;;
7205;SDS011;3644;53.480;10.004;2024-01-30T00:47:19;9.17;;;6.67;;
7205;SDS011;3644;53.480;10.004;2024-01-30T00:49:45;11.53;;;6.57;;
7205;SDS011;3644;53.480;10.004;2024-01-30T00:52:11;8.30;;;6.17;;
7205;SDS011;3644;53.480;10.004;2024-01-30T00:54:36;8.43;;;6.43;;
7205;SDS011;3644;53.480;10.004;2024-01-30T00:57:02;6.67;;;5.90;;
7205;SDS011;3644;53.480;10.004;2024-01-30T00:59:28;10.57;;;6.60;;
7205;SDS011;3644;53.480;10.004;2024-01-30T01:01:53;8.33;;;5.77;;
7205;SDS011;3644;53.480;10.004;2024-01-30T01:04:19;7.77;;;5.60;;
7205;SDS011;3644;53.480;10.004;2024-01-30T01:06:46;11.00;;;6.70;;
7205;SDS011;3644;53.480;10.004;2024-01-30T01:09:12;8.33;;;6.10;;
7205;SDS011;3644;53.480;10.004;2024-01-30T01:11:37;9.17;;;7.13;;
7205;SDS011;3644;53.480;10.004;2024-01-30T01:14:03;8.80;;;6.07;;
7205;SDS011;3644;53.480;10.004;2024-01-30T01:16:29;9.93;;;6.30;;
7205;SDS011;3644;53.480;10.004;2024-01-30T01:18:55;11.10;;;6.43;;
7205;SDS011;3644;53.480;10.004;2024-01-30T01:21:20;10.47;;;6.73;;
7205;SDS011;3644;53.480;10.004;2024-01-30T01:23:46;6.90;;;5.87;;
7205;SDS011;3644;53.480;10.004;2024-01-30T01:26:11;8.80;;;6.70;;
7205;SDS011;3644;53.480;10.004;2024-01-30T01:28:38;8.10;;;6.10;;
7205;SDS011;3644;53.480;10.004;2024-01-30T01:31:05;12.10;;;7.47;;
7205;SDS011;3644;53.480;10.004;2024-01-30T01:33:31;16.23;;;6.10;;
7205;SDS011;3644;53.480;10.004;2024-01-30T01:35:58;9.57;;;6.13;;
7205;SDS011;3644;53.480;10.004;2024-01-30T01:38:24;7.57;;;6.50;;
7205;SDS011;3644;53.480;10.004;2024-01-30T01:40:49;7.70;;;5.80;;
7205;SDS011;3644;53.480;10.004;2024-01-30T01:43:16;7.33;;;5.77;;
7205;SDS011;3644;53.480;10.004;2024-01-30T01:45:41;9.63;;;5.90;;
7205;SDS011;3644;53.480;10.004;2024-01-30T01:48:07;10.10;;;6.40;;
7205;SDS011;3644;53.480;10.004;2024-01-30T01:50:34;6.80;;;5.50;;
7205;SDS011;3644;53.480;10.004;2024-01-30T01:53:00;10.40;;;6.47;;
7205;SDS011;3644;53.480;10.004;2024-01-30T01:55:27;9.60;;;6.30;;
7205;SDS011;3644;53.480;10.004;2024-01-30T01:57:55;8.87;;;6.27;;
7205;SDS011;3644;53.480;10.004;2024-01-30T02:00:20;9.67;;;6.03;;
7205;SDS011;3644;53.480;10.004;2024-01-30T02:02:47;8.37;;;5.90;;
7205;SDS011;3644;53.480;10.004;2024-01-30T02:05:12;8.83;;;6.23;;
7205;SDS011;3644;53.480;10.004;2024-01-30T02:07:39;14.37;;;6.30;;
7205;SDS011;3644;53.480;10.004;2024-01-30T02:10:05;7.73;;;5.80;;
7205;SDS011;3644;53.480;10.004;2024-01-30T02:12:32;10.93;;;6.70;;
7205;SDS011;3644;53.480;10.004;2024-01-30T02:14:58;9.90;;;7.03;;
7205;SDS011;3644;53.480;10.004;2024-01-30T02:17:23;11.10;;;5.80;;
7205;SDS011;3644;53.480;10.004;2024-01-30T02:19:49;12.43;;;6.53;;
7205;SDS011;3644;53.480;10.004;2024-01-30T02:22:15;10.30;;;6.13;;
7205;SDS011;3644;53.480;10.004;2024-01-30T02:24:41;11.80;;;6.57;;
7205;SDS011;3644;53.480;10.004;2024-01-30T02:27:06;7.10;;;6.07;;
7205;SDS011;3644;53.480;10.004;2024-01-30T02:29:32;9.13;;;6.87;;
7205;SDS011;3644;53.480;10.004;2024-01-30T02:31:57;7.83;;;5.97;;
7205;SDS011;3644;53.480;10.004;2024-01-30T02:34:24;9.40;;;5.87;;
7205;SDS011;3644;53.480;10.004;2024-01-30T02:36:49;9.80;;;6.20;;
7205;SDS011;3644;53.480;10.004;2024-01-30T02:39:15;8.00;;;6.60;;
7205;SDS011;3644;53.480;10.004;2024-01-30T02:41:40;9.37;;;6.77;;
7205;SDS011;3644;53.480;10.004;2024-01-30T02:44:06;7.03;;;5.77;;
7205;SDS011;3644;53.480;10.004;2024-01-30T02:46:31;9.57;;;7.07;;
7205;SDS011;3644;53.480;10.004;2024-01-30T02:48:57;10.70;;;6.60;;
7205;SDS011;3644;53.480;10.004;2024-01-30T02:51:22;8.20;;;5.77;;
7205;SDS011;3644;53.480;10.004;2024-01-30T02:53:48;7.70;;;6.40;;
7205;SDS011;3644;53.480;10.004;2024-01-30T02:56:13;7.23;;;6.07;;
7205;SDS011;3644;53.480;10.004;2024-01-30T02:58:39;9.83;;;5.67;;
7205;SDS011;3644;53.480;10.004;2024-01-30T03:01:05;7.50;;;5.50;;
7205;SDS011;3644;53.480;10.004;2024-01-30T03:03:31;6.40;;;4.97;;
7205;SDS011;3644;53.480;10.004;2024-01-30T03:05:57;11.57;;;6.20;;
7205;SDS011;3644;53.480;10.004;2024-01-30T03:08:22;10.30;;;6.47;;
7205;SDS011;3644;53.480;10.004;2024-01-30T03:10:48;7.80;;;6.20;;
7205;SDS011;3644;53.480;10.004;2024-01-30T03:13:14;9.07;;;7.07;;
7205;SDS011;3644;53.480;10.004;2024-01-30T03:15:39;7.83;;;5.83;;
7205;SDS011;3644;53.480;10.004;2024-01-30T03:18:05;12.83;;;6.70;;
7205;SDS011;3644;53.480;10.004;2024-01-30T03:20:30;8.77;;;6.40;;
7205;SDS011;3644;53.480;10.004;2024-01-30T03:22:56;9.10;;;5.60;;
7205;SDS011;3644;53.480;10.004;2024-01-30T03:25:22;7.93;;;5.80;;
7205;SDS011;3644;53.480;10.004;2024-01-30T03:27:47;12.60;;;5.67;;
7205;SDS011;3644;53.480;10.004;2024-01-30T03:30:13;7.67;;;6.00;;
7205;SDS011;3644;53.480;10.004;2024-01-30T03:32:39;6.23;;;5.40;;
7205;SDS011;3644;53.480;10.004;2024-01-30T03:35:05;18.37;;;6.17;;
7205;SDS011;3644;53.480;10.004;2024-01-30T03:37:30;7.13;;;6.03;;
7205;SDS011;3644;53.480;10.004;2024-01-30T03:39:56;10.13;;;6.27;;
7205;SDS011;3644;53.480;10.004;2024-01-30T03:42:22;7.60;;;5.83;;
7205;SDS011;3644;53.480;10.004;2024-01-30T03:44:47;11.20;;;6.23;;
7205;SDS011;3644;53.480;10.004;2024-01-30T03:47:13;16.60;;;6.10;;
7205;SDS011;3644;53.480;10.004;2024-01-30T03:49:38;11.50;;;6.30;;
7205;SDS011;3644;53.480;10.004;2024-01-30T03:52:04;9.40;;;6.43;;
7205;SDS011;3644;53.480;10.004;2024-01-30T03:54:30;6.00;;;5.40;;
7205;SDS011;3644;53.480;10.004;2024-01-30T03:56:55;12.50;;;6.63;;
7205;SDS011;3644;53.480;10.004;2024-01-30T03:59:21;9.53;;;5.90;;
7205;SDS011;3644;53.480;10.004;2024-01-30T04:01:49;9.13;;;5.60;;
7205;SDS011;3644;53.480;10.004;2024-01-30T04:04:16;10.80;;;5.90;;
7205;SDS011;3644;53.480;10.004;2024-01-30T04:06:43;8.17;;;6.30;;
7205;SDS011;3644;53.480;10.004;2024-01-30T04:09:09;9.53;;;7.30;;
7205;SDS011;3644;53.480;10.004;2024-01-30T04:11:36;11.30;;;7.23;;
7205;SDS011;3644;53.480;10.004;2024-01-30T04:14:01;8.37;;;6.20;;
7205;SDS011;3644;53.480;10.004;2024-01-30T04:16:27;12.40;;;6.63;;
7205;SDS011;3644;53.480;10.004;2024-01-30T04:18:52;7.77;;;5.90;;
7205;SDS011;3644;53.480;10.004;2024-01-30T04:21:18;9.50;;;6.33;;
7205;SDS011;3644;53.480;10.004;2024-01-30T04:23:45;8.00;;;6.47;;
7205;SDS011;3644;53.480;10.004;2024-01-30T04:26:11;7.43;;;6.40;;
7205;SDS011;3644;53.480;10.004;2024-01-30T04:28:36;10.10;;;7.43;;
7205;SDS011;3644;53.480;10.004;2024-01-30T04:31:02;7.67;;;6.10;;
7205;SDS011;3644;53.480;10.004;2024-01-30T04:33:28;9.60;;;6.83;;
7205;SDS011;3644;53.480;10.004;2024-01-30T04:35:53;8.13;;;6.40;;
7205;SDS011;3644;53.480;10.004;2024-01-30T04:38:19;8.63;;;7.40;;
7205;SDS011;3644;53.480;10.004;2024-01-30T04:40:44;9.37;;;6.50;;
7205;SDS011;3644;53.480;10.004;2024-01-30T04:43:10;17.90;;;7.17;;
7205;SDS011;3644;53.480;10.004;2024-01-30T04:45:35;10.03;;;7.20;;
7205;SDS011;3644;53.480;10.004;2024-01-30T04:48:01;8.43;;;6.63;;
7205;SDS011;3644;53.480;10.004;2024-01-30T04:50:27;8.00;;;6.40;;
7205;SDS011;3644;53.480;10.004;2024-01-30T04:52:52;8.33;;;5.93;;
7205;SDS011;3644;53.480;10.004;2024-01-30T04:55:18;6.00;;;5.40;;
7205;SDS011;3644;53.480;10.004;2024-01-30T04:57:43;9.77;;;6.23;;
7205;SDS011;3644;53.480;10.004;2024-01-30T05:00:09;10.13;;;6.10;;
7205;SDS011;3644;53.480;10.004;2024-01-30T05:02:35;13.70;;;7.73;;
7205;SDS011;3644;53.480;10.004;2024-01-30T05:05:00;11.70;;;7.30;;
7205;SDS011;3644;53.480;10.004;2024-01-30T05:07:26;6.73;;;5.97;;
7205;SDS011;3644;53.480;10.004;2024-01-30T05:09:52;15.93;;;8.57;;
7205;SDS011;3644;53.480;10.004;2024-01-30T05:12:18;12.10;;;7.57;;
7205;SDS011;3644;53.480;10.004;2024-01-30T05:14:44;9.77;;;7.00;;
7205;SDS011;3644;53.480;10.004;2024-01-30T05:17:09;18.23;;;7.23;;
7205;SDS011;3644;53.480;10.004;2024-01-30T05:19:37;17.03;;;7.67;;
7205;SDS011;3644;53.480;10.004;2024-01-30T05:22:03;14.37;;;8.67;;
7205;SDS011;3644;53.480;10.004;2024-01-30T05:24:29;11.60;;;7.30;;
7205;SDS011;3644;53.480;10.004;2024-01-30T05:26:54;10.23;;;7.10;;
7205;SDS011;3644;53.480;10.004;2024-01-30T05:29:20;12.17;;;7.80;;
7205;SDS011;3644;53.480;10.004;2024-01-30T05:31:45;20.30;;;8.17;;
7205;SDS011;3644;53.480;10.004;2024-01-30T05:34:10;12.20;;;7.53;;
7205;SDS011;3644;53.480;10.004;2024-01-30T05:36:36;11.23;;;8.03;;
7205;SDS011;3644;53.480;10.004;2024-01-30T05:39:02;10.63;;;7.93;;
7205;SDS011;3644;53.480;10.004;2024-01-30T05:41:27;14.37;;;8.10;;
7205;SDS011;3644;53.480;10.004;2024-01-30T05:43:53;11.07;;;7.77;;
7205;SDS011;3644;53.480;10.004;2024-01-30T05:46:18;9.13;;;7.07;;
7205;SDS011;3644;53.480;10.004;2024-01-30T05:48:44;10.83;;;7.17;;
7205;SDS011;3644;53.480;10.004;2024-01-30T05:51:09;11.37;;;8.07;;
7205;SDS011;3644;53.480;10.004;2024-01-30T05:53:35;8.73;;;6.00;;
7205;SDS011;3644;53.480;10.004;2024-01-30T05:56:03;9.10;;;7.40;;
7205;SDS011;3644;53.480;10.004;2024-01-30T05:58:29;10.97;;;7.10;;
7205;SDS011;3644;53.480;10.004;2024-01-30T06:00:56;12.77;;;7.67;;
7205;SDS011;3644;53.480;10.004;2024-01-30T06:03:22;6.53;;;5.80;;
7205;SDS011;3644;53.480;10.004;2024-01-30T06:05:47;9.60;;;6.53;;
7205;SDS011;3644;53.480;10.004;2024-01-30T06:08:13;8.07;;;6.40;;
7205;SDS011;3644;53.480;10.004;2024-01-30T06:10:38;10.43;;;7.07;;
7205;SDS011;3644;53.480;10.004;2024-01-30T06:13:05;8.50;;;6.70;;
7205;SDS011;3644;53.480;10.004;2024-01-30T06:15:30;12.30;;;7.20;;
7205;SDS011;3644;53.480;10.004;2024-01-30T06:17:57;8.40;;;6.97;;
7205;SDS011;3644;53.480;10.004;2024-01-30T06:20:23;11.53;;;7.50;;
7205;SDS011;3644;53.480;10.004;2024-01-30T06:22:49;9.57;;;6.77;;
7205;SDS011;3644;53.480;10.004;2024-01-30T06:25:14;10.00;;;7.03;;
7205;SDS011;3644;53.480;10.004;2024-01-30T06:27:41;14.70;;;8.33;;
7205;SDS011;3644;53.480;10.004;2024-01-30T06:30:06;11.20;;;7.60;;
7205;SDS011;3644;53.480;10.004;2024-01-30T06:32:32;9.90;;;7.20;;
7205;SDS011;3644;53.480;10.004;2024-01-30T06:34:59;12.30;;;7.90;;
7205;SDS011;3644;53.480;10.004;2024-01-30T06:37:25;15.53;;;8.97;;
7205;SDS011;3644;53.480;10.004;2024-01-30T06:39:51;15.53;;;7.30;;
7205;SDS011;3644;53.480;10.004;2024-01-30T06:42:17;13.53;;;9.73;;
7205;SDS011;3644;53.480;10.004;2024-01-30T06:44:43;16.97;;;9.50;;
7205;SDS011;3644;53.480;10.004;2024-01-30T06:47:09;13.10;;;8.10;;
7205;SDS011;3644;53.480;10.004;2024-01-30T06:49:35;12.40;;;9.30;;
7205;SDS011;3644;53.480;10.004;2024-01-30T06:52:03;14.20;;;10.07;;
7205;SDS011;3644;53.480;10.004;2024-01-30T06:54:31;15.10;;;9.00;;
7205;SDS011;3644;53.480;10.004;2024-01-30T06:56:57;13.53;;;8.77;;
7205;SDS011;3644;53.480;10.004;2024-01-30T06:59:23;14.20;;;8.50;;
7205;SDS011;3644;53.480;10.004;2024-01-30T07:01:49;14.43;;;9.07;;
7205;SDS011;3644;53.480;10.004;2024-01-30T07:04:15;12.80;;;8.20;;
7205;SDS011;3644;53.480;10.004;2024-01-30T07:06:41;13.03;;;8.40;;
7205;SDS011;3644;53.480;10.004;2024-01-30T07:09:06;19.70;;;10.27;;
7205;SDS011;3644;53.480;10.004;2024-01-30T07:11:33;12.20;;;7.43;;
7205;SDS011;3644;53.480;10.004;2024-01-30T07:13:59;15.77;;;9.53;;
7205;SDS011;3644;53.480;10.004;2024-01-30T07:16:24;12.90;;;8.97;;
7205;SDS011;3644;53.480;10.004;2024-01-30T07:18:50;13.60;;;8.90;;
7205;SDS011;3644;53.480;10.004;2024-01-30T07:21:16;10.47;;;8.57;;
7205;SDS011;3644;53.480;10.004;2024-01-30T07:23:41;11.00;;;8.10;;
7205;SDS011;3644;53.480;10.004;2024-01-30T07:26:08;10.83;;;7.90;;
7205;SDS011;3644;53.480;10.004;2024-01-30T07:28:34;15.93;;;8.20;;
7205;SDS011;3644;53.480;10.004;2024-01-30T07:31:00;11.47;;;8.57;;
7205;SDS011;3644;53.480;10.004;2024-01-30T07:33:26;11.87;;;7.57;;
7205;SDS011;3644;53.480;10.004;2024-01-30T07:35:52;20.30;;;9.93;;
7205;SDS011;3644;53.480;10.004;2024-01-30T07:38:18;13.63;;;8.97;;
7205;SDS011;3644;53.480;10.004;2024-01-30T07:40:44;19.67;;;9.10;;
7205;SDS011;3644;53.480;10.004;2024-01-30T07:43:10;13.50;;;9.37;;
7205;SDS011;3644;53.480;10.004;2024-01-30T07:45:35;17.60;;;9.70;;
7205;SDS011;3644;53.480;10.004;2024-01-30T07:48:02;11.20;;;8.67;;
7205;SDS011;3644;53.480;10.004;2024-01-30T07:50:28;11.10;;;8.83;;
7205;SDS011;3644;53.480;10.004;2024-01-30T07:52:55;9.50;;;7.97;;
7205;SDS011;3644;53.480;10.004;2024-01-30T07:55:21;14.43;;;9.13;;
7205;SDS011;3644;53.480;10.004;2024-01-30T07:57:49;16.10;;;9.80;;
7205;SDS011;3644;53.480;10.004;2024-01-30T08:00:17;11.23;;;8.60;;
7205;SDS011;3644;53.480;10.004;2024-01-30T08:02:44;14.00;;;9.40;;
7205;SDS011;3644;53.480;10.004;2024-01-30T08:05:10;15.60;;;9.80;;
7205;SDS011;3644;53.480;10.004;2024-01-30T08:07:36;11.80;;;8.87;;
7205;SDS011;3644;53.480;10.004;2024-01-30T08:10:02;12.83;;;9.50;;
7205;SDS011;3644;53.480;10.004;2024-01-30T08:12:27;13.23;;;9.90;;
7205;SDS011;3644;53.480;10.004;2024-01-30T08:14:53;16.63;;;9.30;;
7205;SDS011;3644;53.480;10.004;2024-01-30T08:17:18;16.87;;;9.97;;
7205;SDS011;3644;53.480;10.004;2024-01-30T08:19:44;13.70;;;9.77;;
7205;SDS011;3644;53.480;10.004;2024-01-30T08:22:09;14.43;;;9.77;;
7205;SDS011;3644;53.480;10.004;2024-01-30T08:24:35;17.07;;;9.80;;
7205;SDS011;3644;53.480;10.004;2024-01-30T08:27:00;20.07;;;10.00;;
7205;SDS011;3644;53.480;10.004;2024-01-30T08:29:27;16.23;;;10.17;;
7205;SDS011;3644;53.480;10.004;2024-01-30T08:31:53;15.17;;;9.17;;
7205;SDS011;3644;53.480;10.004;2024-01-30T08:34:20;16.10;;;9.37;;
7205;SDS011;3644;53.480;10.004;2024-01-30T08:36:46;15.17;;;9.07;;
7205;SDS011;3644;53.480;10.004;2024-01-30T08:39:11;16.13;;;10.50;;
7205;SDS011;3644;53.480;10.004;2024-01-30T08:41:37;17.33;;;9.90;;
7205;SDS011;3644;53.480;10.004;2024-01-30T08:44:02;19.47;;;8.90;;
7205;SDS011;3644;53.480;10.004;2024-01-30T08:46:29;14.07;;;9.70;;
7205;SDS011;3644;53.480;10.004;2024-01-30T08:48:55;13.60;;;10.40;;
7205;SDS011;3644;53.480;10.004;2024-01-30T08:51:21;16.00;;;10.40;;
7205;SDS011;3644;53.480;10.004;2024-01-30T08:53:47;17.63;;;11.37;;
7205;SDS011;3644;53.480;10.004;2024-01-30T08:56:12;14.30;;;11.10;;
7205;SDS011;3644;53.480;10.004;2024-01-30T08:58:38;18.73;;;10.50;;
7205;SDS011;3644;53.480;10.004;2024-01-30T09:01:04;19.07;;;9.27;;
7205;SDS011;3644;53.480;10.004;2024-01-30T09:03:31;13.17;;;9.80;;
7205;SDS011;3644;53.480;10.004;2024-01-30T09:05:56;15.43;;;9.77;;
7205;SDS011;3644;53.480;10.004;2024-01-30T09:08:22;20.10;;;11.07;;
7205;SDS011;3644;53.480;10.004;2024-01-30T09:10:47;15.03;;;10.33;;
7205;SDS011;3644;53.480;10.004;2024-01-30T09:13:14;19.70;;;10.00;;
7205;SDS011;3644;53.480;10.004;2024-01-30T09:15:40;15.53;;;10.03;;
7205;SDS011;3644;53.480;10.004;2024-01-30T09:18:06;19.20;;;10.97;;
7205;SDS011;3644;53.480;10.004;2024-01-30T09:20:32;17.50;;;11.13;;
7205;SDS011;3644;53.480;10.004;2024-01-30T09:22:57;14.83;;;11.20;;
7205;SDS011;3644;53.480;10.004;2024-01-30T09:25:23;16.63;;;11.27;;
7205;SDS011;3644;53.480;10.004;2024-01-30T09:27:48;19.80;;;12.33;;
7205;SDS011;3644;53.480;10.004;2024-01-30T09:30:14;16.20;;;11.50;;
7205;SDS011;3644;53.480;10.004;2024-01-30T09:32:40;16.50;;;10.57;;
7205;SDS011;3644;53.480;10.004;2024-01-30T09:35:05;19.50;;;11.33;;
7205;SDS011;3644;53.480;10.004;2024-01-30T09:37:31;17.97;;;12.07;;
7205;SDS011;3644;53.480;10.004;2024-01-30T09:39:57;14.07;;;10.20;;
7205;SDS011;3644;53.480;10.004;2024-01-30T09:44:54;21.23;;;12.00;;
7205;SDS011;3644;53.480;10.004;2024-01-30T09:47:20;14.40;;;10.77;;
7205;SDS011;3644;53.480;10.004;2024-01-30T09:49:45;17.27;;;9.90;;
7205;SDS011;3644;53.480;10.004;2024-01-30T09:52:11;27.13;;;10.50;;
7205;SDS011;3644;53.480;10.004;2024-01-30T09:54:37;18.50;;;10.93;;
7205;SDS011;3644;53.480;10.004;2024-01-30T09:57:03;15.47;;;11.70;;
7205;SDS011;3644;53.480;10.004;2024-01-30T09:59:30;15.80;;;11.53;;
7205;SDS011;3644;53.480;10.004;2024-01-30T10:01:56;16.93;;;10.13;;
7205;SDS011;3644;53.480;10.004;2024-01-30T10:04:22;14.50;;;10.50;;
7205;SDS011;3644;53.480;10.004;2024-01-30T10:06:47;17.63;;;9.80;;
7205;SDS011;3644;53.480;10.004;2024-01-30T10:09:13;15.87;;;11.10;;
7205;SDS011;3644;53.480;10.004;2024-01-30T10:11:39;15.27;;;9.83;;
7205;SDS011;3644;53.480;10.004;2024-01-30T10:14:04;14.70;;;9.90;;
7205;SDS011;3644;53.480;10.004;2024-01-30T10:16:30;18.03;;;10.67;;
7205;SDS011;3644;53.480;10.004;2024-01-30T10:18:55;14.93;;;10.70;;
7205;SDS011;3644;53.480;10.004;2024-01-30T10:21:21;19.30;;;10.90;;
7205;SDS011;3644;53.480;10.004;2024-01-30T10:23:47;16.23;;;10.77;;
7205;SDS011;3644;53.480;10.004;2024-01-30T10:26:12;15.50;;;9.97;;
7205;SDS011;3644;53.480;10.004;2024-01-30T10:28:38;16.20;;;11.30;;
7205;SDS011;3644;53.480;10.004;2024-01-30T10:31:04;21.50;;;10.57;;
7205;SDS011;3644;53.480;10.004;2024-01-30T10:33:30;16.47;;;10.20;;
7205;SDS011;3644;53.480;10.004;2024-01-30T10:35:56;15.17;;;10.73;;
7205;SDS011;3644;53.480;10.004;2024-01-30T10:38:28;16.77;;;10.40;;
7205;SDS011;3644;53.480;10.004;2024-01-30T10:40:58;12.27;;;8.50;;
7205;SDS011;3644;53.480;10.004;2024-01-30T10:43:31;17.83;;;10.70;;
7205;SDS011;3644;53.480;10.004;2024-01-30T10:46:18;15.20;;;10.13;;
7205;SDS011;3644;53.480;10.004;2024-01-30T10:48:50;11.63;;;8.80;;
7205;SDS011;3644;53.480;10.004;2024-01-30T10:51:20;17.53;;;11.37;;
7205;SDS011;3644;53.480;10.004;2024-01-30T10:53:47;12.83;;;8.97;;
7205;SDS011;3644;53.480;10.004;2024-01-30T10:56:14;17.10;;;10.40;;
7205;SDS011;3644;53.480;10.004;2024-01-30T10:58:41;14.43;;;9.67;;
7205;SDS011;3644;53.480;10.004;2024-01-30T11:01:07;13.63;;;9.87;;
7205;SDS011;3644;53.480;10.004;2024-01-30T11:03:33;13.80;;;9.27;;
7205;SDS011;3644;53.480;10.004;2024-01-30T11:06:01;16.17;;;10.23;;
7205;SDS011;3644;53.480;10.004;2024-01-30T11:08:27;13.27;;;9.23;;
7205;SDS011;3644;53.480;10.004;2024-01-30T11:10:57;12.47;;;9.40;;
7205;SDS011;3644;53.480;10.004;2024-01-30T11:13:26;14.50;;;10.07;;
7205;SDS011;3644;53.480;10.004;2024-01-30T11:15:53;15.60;;;10.00;;
7205;SDS011;3644;53.480;10.004;2024-01-30T11:18:25;13.30;;;9.47;;
7205;SDS011;3644;53.480;10.004;2024-01-30T11:20:55;18.33;;;9.57;;
7205;SDS011;3644;53.480;10.004;2024-01-30T11:23:22;13.60;;;10.00;;
7205;SDS011;3644;53.480;10.004;2024-01-30T11:25:47;10.30;;;9.00;;
7205;SDS011;3644;53.480;10.004;2024-01-30T11:28:16;18.70;;;8.87;;
7205;SDS011;3644;53.480;10.004;2024-01-30T11:30:42;12.90;;;8.57;;
7205;SDS011;3644;53.480;10.004;2024-01-30T11:33:09;13.03;;;9.97;;
7205;SDS011;3644;53.480;10.004;2024-01-30T11:38:06;14.03;;;8.90;;
7205;SDS011;3644;53.480;10.004;2024-01-30T11:40:33;10.80;;;8.50;;
7205;SDS011;3644;53.480;10.004;2024-01-30T11:43:00;12.87;;;9.10;;
7205;SDS011;3644;53.480;10.004;2024-01-30T11:45:27;13.67;;;9.77;;
7205;SDS011;3644;53.480;10.004;2024-01-30T11:47:53;16.87;;;9.40;;
7205;SDS011;3644;53.480;10.004;2024-01-30T11:50:19;13.77;;;9.07;;
7205;SDS011;3644;53.480;10.004;2024-01-30T11:52:45;12.50;;;9.10;;
7205;SDS011;3644;53.480;10.004;2024-01-30T11:55:11;14.07;;;9.37;;
7205;SDS011;3644;53.480;10.004;2024-01-30T11:57:38;10.37;;;8.47;;
7205;SDS011;3644;53.480;10.004;2024-01-30T12:00:04;12.37;;;8.83;;
7205;SDS011;3644;53.480;10.004;2024-01-30T12:02:38;13.97;;;9.10;;
7205;SDS011;3644;53.480;10.004;2024-01-30T12:05:05;13.27;;;9.33;;
7205;SDS011;3644;53.480;10.004;2024-01-30T12:07:31;12.93;;;8.83;;
7205;SDS011;3644;53.480;10.004;2024-01-30T12:09:57;13.50;;;7.83;;
7205;SDS011;3644;53.480;10.004;2024-01-30T12:12:24;17.13;;;9.37;;
7205;SDS011;3644;53.480;10.004;2024-01-30T12:14:51;16.90;;;9.67;;
7205;SDS011;3644;53.480;10.004;2024-01-30T12:20:02;14.13;;;7.60;;
7205;SDS011;3644;53.480;10.004;2024-01-30T12:22:32;12.63;;;8.00;;
7205;SDS011;3644;53.480;10.004;2024-01-30T12:25:04;17.03;;;7.83;;
7205;SDS011;3644;53.480;10.004;2024-01-30T12:27:30;11.47;;;7.43;;
7205;SDS011;3644;53.480;10.004;2024-01-30T12:29:58;11.73;;;7.30;;
7205;SDS011;3644;53.480;10.004;2024-01-30T12:32:24;9.47;;;6.53;;
7205;SDS011;3644;53.480;10.004;2024-01-30T12:34:50;13.50;;;7.47;;
7205;SDS011;3644;53.480;10.004;2024-01-30T12:37:15;15.33;;;8.50;;
7205;SDS011;3644;53.480;10.004;2024-01-30T12:39:47;9.93;;;6.67;;
7205;SDS011;3644;53.480;10.004;2024-01-30T12:42:13;11.93;;;6.90;;
7205;SDS011;3644;53.480;10.004;2024-01-30T12:44:39;13.30;;;7.40;;
7205;SDS011;3644;53.480;10.004;2024-01-30T12:47:05;8.90;;;7.63;;
7205;SDS011;3644;53.480;10.004;2024-01-30T12:49:30;11.00;;;7.63;;
7205;SDS011;3644;53.480;10.004;2024-01-30T12:51:56;11.73;;;7.47;;
7205;SDS011;3644;53.480;10.004;2024-01-30T12:54:23;9.73;;;6.67;;
7205;SDS011;3644;53.480;10.004;2024-01-30T12:56:48;12.27;;;8.50;;
7205;SDS011;3644;53.480;10.004;2024-01-30T12:59:14;17.20;;;10.83;;
7205;SDS011;3644;53.480;10.004;2024-01-30T13:01:39;15.23;;;8.60;;
7205;SDS011;3644;53.480;10.004;2024-01-30T13:04:05;12.83;;;8.37;;
7205;SDS011;3644;53.480;10.004;2024-01-30T13:06:30;15.20;;;9.07;;
7205;SDS011;3644;53.480;10.004;2024-01-30T13:08:56;16.20;;;10.00;;
7205;SDS011;3644;53.480;10.004;2024-01-30T13:11:21;14.70;;;8.40;;
7205;SDS011;3644;53.480;10.004;2024-01-30T13:13:47;33.77;;;10.10;;
7205;SDS011;3644;53.480;10.004;2024-01-30T13:16:12;13.47;;;8.40;;
7205;SDS011;3644;53.480;10.004;2024-01-30T13:18:38;11.40;;;7.80;;
7205;SDS011;3644;53.480;10.004;2024-01-30T13:21:03;12.60;;;7.97;;
7205;SDS011;3644;53.480;10.004;2024-01-30T13:23:29;13.87;;;8.40;;
7205;SDS011;3644;53.480;10.004;2024-01-30T13:25:54;14.63;;;9.23;;
7205;SDS011;3644;53.480;10.004;2024-01-30T13:28:23;13.37;;;9.00;;
7205;SDS011;3644;53.480;10.004;2024-01-30T13:30:48;14.80;;;8.07;;
7205;SDS011;3644;53.480;10.004;2024-01-30T13:33:14;12.50;;;8.57;;
7205;SDS011;3644;53.480;10.004;2024-01-30T13:35:39;15.00;;;8.50;;
7205;SDS011;3644;53.480;10.004;2024-01-30T13:38:05;9.40;;;6.67;;
7205;SDS011;3644;53.480;10.004;2024-01-30T13:40:30;14.43;;;8.07;;
7205;SDS011;3644;53.480;10.004;2024-01-30T13:42:56;8.57;;;6.60;;
7205;SDS011;3644;53.480;10.004;2024-01-30T13:45:21;17.30;;;7.90;;
7205;SDS011;3644;53.480;10.004;2024-01-30T13:47:47;15.10;;;7.70;;
7205;SDS011;3644;53.480;10.004;2024-01-30T13:50:12;14.47;;;6.73;;
7205;SDS011;3644;53.480;10.004;2024-01-30T13:52:40;11.93;;;7.40;;
7205;SDS011;3644;53.480;10.004;2024-01-30T13:55:06;11.40;;;7.60;;
7205;SDS011;3644;53.480;10.004;2024-01-30T13:57:31;12.70;;;7.87;;
7205;SDS011;3644;53.480;10.004;2024-01-30T14:00:00;11.13;;;7.73;;
7205;SDS011;3644;53.480;10.004;2024-01-30T14:02:26;11.13;;;7.67;;
7205;SDS011;3644;53.480;10.004;2024-01-30T14:04:52;16.40;;;7.07;;
7205;SDS011;3644;53.480;10.004;2024-01-30T14:07:17;15.37;;;8.57;;
7205;SDS011;3644;53.480;10.004;2024-01-30T14:09:43;19.53;;;10.87;;
7205;SDS011;3644;53.480;10.004;2024-01-30T14:12:09;20.77;;;11.93;;
7205;SDS011;3644;53.480;10.004;2024-01-30T14:14:35;18.73;;;9.57;;
7205;SDS011;3644;53.480;10.004;2024-01-30T14:17:00;17.43;;;10.60;;
7205;SDS011;3644;53.480;10.004;2024-01-30T14:19:26;16.03;;;8.27;;
7205;SDS011;3644;53.480;10.004;2024-01-30T14:21:52;18.07;;;10.57;;
7205;SDS011;3644;53.480;10.004;2024-01-30T14:24:17;20.40;;;11.50;;
7205;SDS011;3644;53.480;10.004;2024-01-30T14:26:43;21.33;;;13.50;;
7205;SDS011;3644;53.480;10.004;2024-01-30T14:29:09;11.57;;;8.60;;
7205;SDS011;3644;53.480;10.004;2024-01-30T14:31:34;12.90;;;7.70;;
7205;SDS011;3644;53.480;10.004;2024-01-30T14:34:00;12.20;;;6.87;;
7205;SDS011;3644;53.480;10.004;2024-01-30T14:36:25;14.00;;;7.70;;
7205;SDS011;3644;53.480;10.004;2024-01-30T14:38:53;8.13;;;7.33;;
7205;SDS011;3644;53.480;10.004;2024-01-30T14:41:19;10.20;;;7.10;;
7205;SDS011;3644;53.480;10.004;2024-01-30T14:43:45;15.00;;;8.17;;
7205;SDS011;3644;53.480;10.004;2024-01-30T14:46:11;13.27;;;7.33;;
7205;SDS011;3644;53.480;10.004;2024-01-30T14:48:36;10.13;;;6.47;;
7205;SDS011;3644;53.480;10.004;2024-01-30T14:51:02;12.10;;;6.53;;